createdAt,value
2019-02-06T00:00:53.415Z,43.55
2019-02-06T00:01:32.443Z,45.52
2019-02-06T00:02:14.013Z,44.50
2019-02-06T00:02:47.063Z,44.70
2019-02-06T00:03:21.400Z,44.88
2019-02-06T00:03:54.661Z,44.73
2019-02-06T00:04:27.726Z,43.75
2019-02-06T00:05:00.877Z,43.80
2019-02-06T00:05:34.025Z,45.45
2019-02-06T00:06:07.075Z,46.70
2019-02-06T00:06:40.253Z,42.65
2019-02-06T00:07:13.309Z,45.75
2019-02-06T00:07:46.465Z,45.17
2019-02-06T00:08:19.649Z,45.40
2019-02-06T00:08:53.929Z,43.80
2019-02-06T00:09:27.000Z,46.20
2019-02-06T00:10:00.332Z,45.73
2019-02-06T00:10:34.172Z,44.67
2019-02-06T00:11:07.382Z,44.40
2019-02-06T00:11:40.585Z,45.98
2019-02-06T00:12:13.630Z,45.48
2019-02-06T00:12:47.102Z,45.48
2019-02-06T00:13:20.235Z,45.83
2019-02-06T00:13:53.714Z,45.20
2019-02-06T00:14:26.743Z,46.18
2019-02-06T00:14:59.802Z,44.95
2019-02-06T00:15:33.048Z,44.90
2019-02-06T00:16:06.358Z,45.03
2019-02-06T00:16:39.413Z,46.53
2019-02-06T00:17:12.834Z,44.83
2019-02-06T00:17:46.038Z,45.67
2019-02-06T00:18:20.005Z,45.95
2019-02-06T00:18:53.207Z,46.30
2019-02-06T00:19:26.203Z,46.23
2019-02-06T00:19:59.235Z,45.50
2019-02-06T00:20:32.247Z,44.90
2019-02-06T00:21:05.432Z,46.15
2019-02-06T00:21:38.489Z,44.58
2019-02-06T00:22:11.784Z,43.15
2019-02-06T00:22:44.768Z,44.45
2019-02-06T00:23:17.823Z,44.73
2019-02-06T00:23:50.938Z,45.60
2019-02-06T00:24:24.208Z,44.30
2019-02-06T00:24:57.351Z,44.13
2019-02-06T00:25:30.608Z,45.85
2019-02-06T00:26:04.014Z,45.88
2019-02-06T00:26:37.282Z,46.13
2019-02-06T00:27:10.356Z,45.20
2019-02-06T00:27:43.902Z,45.23
2019-02-06T00:28:16.920Z,44.33
2019-02-06T00:28:50.159Z,44.70
2019-02-06T00:29:23.406Z,45.10
2019-02-06T00:29:56.481Z,44.75
2019-02-06T00:30:29.456Z,44.63
2019-02-06T00:31:02.802Z,44.80
2019-02-06T00:31:35.874Z,44.27
2019-02-06T00:32:09.201Z,44.90
2019-02-06T00:32:42.420Z,44.05
2019-02-06T00:33:15.611Z,44.98
2019-02-06T00:33:48.670Z,44.60
2019-02-06T00:34:21.733Z,44.93
2019-02-06T00:34:54.900Z,43.83
2019-02-06T00:35:28.093Z,43.05
2019-02-06T00:36:01.254Z,43.25
2019-02-06T00:36:34.379Z,44.18
2019-02-06T00:37:07.525Z,44.13
2019-02-06T00:37:40.546Z,43.45
2019-02-06T00:38:13.574Z,44.13
2019-02-06T00:38:46.582Z,44.05
2019-02-06T00:39:19.598Z,43.60
2019-02-06T00:39:52.614Z,44.13
2019-02-06T00:40:25.754Z,42.53
2019-02-06T00:40:58.904Z,43.78
2019-02-06T00:41:32.321Z,43.08
2019-02-06T00:42:05.467Z,43.40
2019-02-06T00:42:39.186Z,43.00
2019-02-06T00:43:12.359Z,43.17
2019-02-06T00:43:45.862Z,43.05
2019-02-06T00:44:18.970Z,42.45
2019-02-06T00:44:52.178Z,42.90
2019-02-06T00:45:25.194Z,42.38
2019-02-06T00:45:58.338Z,43.02
2019-02-06T00:46:31.458Z,41.42
2019-02-06T00:47:04.376Z,42.83
2019-02-06T00:47:37.398Z,41.95
2019-02-06T00:48:10.432Z,43.80
2019-02-06T00:48:43.511Z,43.45
2019-02-06T00:49:17.628Z,43.58
2019-02-06T00:49:50.654Z,43.85
2019-02-06T00:50:23.742Z,42.27
2019-02-06T00:50:56.754Z,42.53
2019-02-06T00:51:29.672Z,43.42
2019-02-06T00:52:02.804Z,43.30
2019-02-06T00:52:35.903Z,43.23
2019-02-06T00:53:08.920Z,42.58
2019-02-06T00:53:41.945Z,42.65
2019-02-06T00:54:15.055Z,41.70
2019-02-06T00:54:48.083Z,43.35
2019-02-06T00:55:21.393Z,42.50
2019-02-06T00:55:54.471Z,42.80
2019-02-06T00:56:28.010Z,42.93
2019-02-06T00:57:01.014Z,42.60
2019-02-06T00:57:34.690Z,43.10
2019-02-06T00:58:07.744Z,43.78
2019-02-06T00:58:40.756Z,43.45
2019-02-06T00:59:14.372Z,43.40
2019-02-06T00:59:47.438Z,42.85
2019-02-06T01:00:21.777Z,43.13
2019-02-06T01:00:54.778Z,42.85
2019-02-06T01:01:27.947Z,43.08
2019-02-06T01:02:00.980Z,42.03
2019-02-06T01:02:34.084Z,43.42
2019-02-06T01:03:07.290Z,43.23
2019-02-06T01:03:40.613Z,41.98
2019-02-06T01:04:13.869Z,43.13
2019-02-06T01:04:47.004Z,43.38
2019-02-06T01:05:20.646Z,42.25
2019-02-06T01:05:53.652Z,43.85
2019-02-06T01:06:26.760Z,42.27
2019-02-06T01:06:59.888Z,41.37
2019-02-06T01:07:32.902Z,39.78
2019-02-06T01:08:05.959Z,42.58
2019-02-06T01:08:38.976Z,41.33
2019-02-06T01:09:11.966Z,40.50
2019-02-06T01:09:45.128Z,41.15
2019-02-06T01:10:18.974Z,42.15
2019-02-06T01:10:51.969Z,41.25
2019-02-06T01:11:26.492Z,39.35
2019-02-06T01:11:59.506Z,41.70
2019-02-06T01:12:32.804Z,41.70
2019-02-06T01:13:05.938Z,41.30
2019-02-06T01:13:39.956Z,42.60
2019-02-06T01:14:12.982Z,39.60
2019-02-06T01:14:46.072Z,40.50
2019-02-06T01:15:19.159Z,40.98
2019-02-06T01:15:52.336Z,41.05
2019-02-06T01:16:25.344Z,40.28
2019-02-06T01:16:58.364Z,42.13
2019-02-06T01:17:31.482Z,41.00
2019-02-06T01:18:04.847Z,40.55
2019-02-06T01:18:37.867Z,40.15
2019-02-06T01:19:10.929Z,40.80
2019-02-06T01:19:43.961Z,41.60
2019-02-06T01:20:17.022Z,41.02
2019-02-06T01:20:50.130Z,40.43
2019-02-06T01:21:23.142Z,41.10
2019-02-06T01:21:56.145Z,40.90
2019-02-06T01:22:29.295Z,40.78
2019-02-06T01:23:02.482Z,39.78
2019-02-06T01:23:35.512Z,39.95
2019-02-06T01:24:08.878Z,41.60
2019-02-06T01:24:41.918Z,40.48
2019-02-06T01:25:16.098Z,41.30
2019-02-06T01:25:50.340Z,40.25
2019-02-06T01:26:24.371Z,41.02
2019-02-06T01:26:57.529Z,40.83
2019-02-06T01:27:30.596Z,40.38
2019-02-06T01:28:03.770Z,39.65
2019-02-06T01:28:36.912Z,39.95
2019-02-06T01:29:10.087Z,39.55
2019-02-06T01:29:44.348Z,40.70
2019-02-06T01:30:21.366Z,41.50
2019-02-06T01:31:06.344Z,39.92
2019-02-06T01:31:39.392Z,40.28
2019-02-06T01:32:12.690Z,40.03
2019-02-06T01:32:45.885Z,39.88
2019-02-06T01:33:19.398Z,40.45
2019-02-06T01:33:52.484Z,40.85
2019-02-06T01:34:27.191Z,40.52
2019-02-06T01:35:00.357Z,41.05
2019-02-06T01:35:34.449Z,40.45
2019-02-06T01:36:07.600Z,40.05
2019-02-06T01:36:40.607Z,41.02
2019-02-06T01:37:13.661Z,41.00
2019-02-06T01:37:47.946Z,39.78
2019-02-06T01:38:21.025Z,40.38
2019-02-06T01:38:54.032Z,40.48
2019-02-06T01:39:27.109Z,39.90
2019-02-06T01:40:00.329Z,40.17
2019-02-06T01:40:33.469Z,39.53
2019-02-06T01:41:06.575Z,41.05
2019-02-06T01:41:39.759Z,40.78
2019-02-06T01:42:14.327Z,40.60
2019-02-06T01:42:47.596Z,40.63
2019-02-06T01:43:20.587Z,40.98
2019-02-06T01:43:53.640Z,39.60
2019-02-06T01:44:26.734Z,39.50
2019-02-06T01:44:59.920Z,40.98
2019-02-06T01:45:33.009Z,40.20
2019-02-06T01:46:06.173Z,40.65
2019-02-06T01:46:39.341Z,40.20
2019-02-06T01:47:12.775Z,40.38
2019-02-06T01:47:47.331Z,40.52
2019-02-06T01:48:20.927Z,39.45
2019-02-06T01:48:55.462Z,40.15
2019-02-06T01:49:28.936Z,40.83
2019-02-06T01:50:02.166Z,41.08
2019-02-06T01:50:35.815Z,40.90
2019-02-06T01:51:10.495Z,39.73
2019-02-06T01:51:43.615Z,40.75
2019-02-06T01:52:18.270Z,40.48
2019-02-06T01:52:51.356Z,40.65
2019-02-06T01:53:24.351Z,39.70
2019-02-06T01:53:57.403Z,40.50
2019-02-06T01:54:30.322Z,40.83
2019-02-06T01:55:04.545Z,40.50
2019-02-06T01:55:37.550Z,41.23
2019-02-06T01:56:10.617Z,40.58
2019-02-06T01:56:43.625Z,40.60
2019-02-06T01:57:16.713Z,40.35
2019-02-06T01:57:49.710Z,39.60
2019-02-06T01:58:22.891Z,39.27
2019-02-06T01:58:55.862Z,40.95
2019-02-06T01:59:28.913Z,40.20
2019-02-06T02:00:02.634Z,40.43
2019-02-06T02:00:36.927Z,40.03
2019-02-06T02:01:10.021Z,41.40
2019-02-06T02:01:43.106Z,39.88
2019-02-06T02:02:16.034Z,39.27
2019-02-06T02:02:49.187Z,39.83
2019-02-06T02:03:22.589Z,39.08
2019-02-06T02:03:55.678Z,39.63
2019-02-06T02:04:29.113Z,40.33
2019-02-06T02:05:02.172Z,39.80
2019-02-06T02:05:37.858Z,40.10
2019-02-06T02:06:10.416Z,39.55
2019-02-06T02:06:43.936Z,40.50
2019-02-06T02:07:17.051Z,39.83
2019-02-06T02:07:50.480Z,39.15
2019-02-06T02:08:23.719Z,40.12
2019-02-06T02:08:59.931Z,39.65
2019-02-06T02:09:33.137Z,39.53
2019-02-06T02:10:06.889Z,39.33
2019-02-06T02:10:39.935Z,39.33
2019-02-06T02:11:13.031Z,39.92
2019-02-06T02:11:46.205Z,40.67
2019-02-06T02:12:20.579Z,39.35
2019-02-06T02:12:53.770Z,39.80
2019-02-06T02:13:26.761Z,40.57
2019-02-06T02:13:59.811Z,40.15
2019-02-06T02:14:32.909Z,40.60
2019-02-06T02:15:08.281Z,38.58
2019-02-06T02:15:41.449Z,37.95
2019-02-06T02:16:14.523Z,39.78
2019-02-06T02:16:47.531Z,39.75
2019-02-06T02:17:20.619Z,38.83
2019-02-06T02:17:53.571Z,39.50
2019-02-06T02:18:26.701Z,39.85
2019-02-06T02:18:59.727Z,38.92
2019-02-06T02:19:32.858Z,37.80
2019-02-06T02:20:11.824Z,39.25
2019-02-06T02:20:44.917Z,38.15
2019-02-06T02:21:18.081Z,39.23
2019-02-06T02:21:51.108Z,38.30
2019-02-06T02:22:24.376Z,39.67
2019-02-06T02:22:57.728Z,37.48
2019-02-06T02:23:30.955Z,39.95
2019-02-06T02:24:04.219Z,39.85
2019-02-06T02:24:37.402Z,38.83
2019-02-06T02:25:12.191Z,38.92
2019-02-06T02:25:45.319Z,38.98
2019-02-06T02:26:19.135Z,37.53
2019-02-06T02:26:52.185Z,39.60
2019-02-06T02:27:25.605Z,39.45
2019-02-06T02:27:58.642Z,39.18
2019-02-06T02:28:31.801Z,38.15
2019-02-06T02:29:04.821Z,39.50
2019-02-06T02:29:37.945Z,38.75
2019-02-06T02:30:16.004Z,39.42
2019-02-06T02:30:52.307Z,39.15
2019-02-06T02:31:25.405Z,39.83
2019-02-06T02:31:58.451Z,37.35
2019-02-06T02:32:31.607Z,39.18
2019-02-06T02:33:04.729Z,38.92
2019-02-06T02:33:37.830Z,38.55
2019-02-06T02:34:11.097Z,37.60
2019-02-06T02:34:44.003Z,39.13
2019-02-06T02:35:17.185Z,38.38
2019-02-06T02:35:50.257Z,39.75
2019-02-06T02:36:23.323Z,37.95
2019-02-06T02:36:56.417Z,38.53
2019-02-06T02:37:29.385Z,40.12
2019-02-06T02:38:02.518Z,40.17
2019-02-06T02:38:35.599Z,39.83
2019-02-06T02:39:08.795Z,39.27
2019-02-06T02:39:41.945Z,39.35
2019-02-06T02:40:15.176Z,39.30
2019-02-06T02:40:48.352Z,39.23
2019-02-06T02:41:21.359Z,39.50
2019-02-06T02:41:54.484Z,39.25
2019-02-06T02:42:27.384Z,38.95
2019-02-06T02:43:00.440Z,38.75
2019-02-06T02:43:33.933Z,38.75
2019-02-06T02:44:06.883Z,38.90
2019-02-06T02:44:41.176Z,39.35
2019-02-06T02:45:15.645Z,39.05
2019-02-06T02:45:49.237Z,38.85
2019-02-06T02:46:22.278Z,38.28
2019-02-06T02:46:55.305Z,38.78
2019-02-06T02:47:28.378Z,39.18
2019-02-06T02:48:01.372Z,39.78
2019-02-06T02:48:34.311Z,38.55
2019-02-06T02:49:07.333Z,39.63
2019-02-06T02:49:40.317Z,38.73
2019-02-06T02:50:13.469Z,37.80
2019-02-06T02:50:47.259Z,39.00
2019-02-06T02:51:20.307Z,39.15
2019-02-06T02:51:53.562Z,39.10
2019-02-06T02:52:26.593Z,39.13
2019-02-06T02:52:59.681Z,39.80
2019-02-06T02:53:32.714Z,38.75
2019-02-06T02:54:05.836Z,38.40
2019-02-06T02:54:38.846Z,38.58
2019-02-06T02:55:12.279Z,38.83
2019-02-06T02:55:45.421Z,38.45
2019-02-06T02:56:18.578Z,37.35
2019-02-06T02:56:51.479Z,39.45
2019-02-06T02:57:24.705Z,38.70
2019-02-06T02:57:57.707Z,38.78
2019-02-06T02:58:31.154Z,38.53
2019-02-06T02:59:04.151Z,39.33
2019-02-06T02:59:37.620Z,39.27
2019-02-06T03:00:15.400Z,37.70
2019-02-06T03:01:08.619Z,38.55
2019-02-06T03:01:59.531Z,37.98
2019-02-06T03:02:52.255Z,38.83
2019-02-06T03:03:36.961Z,39.40
2019-02-06T03:04:15.689Z,37.15
2019-02-06T03:04:52.945Z,37.65
2019-02-06T03:05:30.553Z,38.85
2019-02-06T03:06:04.957Z,38.90
2019-02-06T03:06:38.907Z,39.18
2019-02-06T03:07:11.955Z,38.80
2019-02-06T03:07:45.085Z,37.53
2019-02-06T03:08:18.057Z,37.40
2019-02-06T03:08:51.511Z,38.48
2019-02-06T03:09:24.688Z,37.67
2019-02-06T03:09:58.143Z,37.93
2019-02-06T03:10:31.137Z,38.50
2019-02-06T03:11:04.685Z,38.20
2019-02-06T03:11:37.721Z,37.20
2019-02-06T03:12:10.734Z,38.25
2019-02-06T03:12:44.981Z,38.25
2019-02-06T03:13:18.355Z,38.65
2019-02-06T03:13:51.405Z,38.33
2019-02-06T03:14:24.396Z,37.75
2019-02-06T03:14:57.465Z,37.55
2019-02-06T03:15:31.566Z,37.30
2019-02-06T03:16:06.267Z,38.70
2019-02-06T03:16:40.488Z,37.33
2019-02-06T03:17:13.624Z,37.65
2019-02-06T03:17:46.654Z,37.78
2019-02-06T03:18:19.741Z,38.00
2019-02-06T03:18:52.730Z,37.73
2019-02-06T03:19:25.824Z,37.75
2019-02-06T03:19:58.904Z,37.88
2019-02-06T03:20:31.994Z,37.95
2019-02-06T03:21:05.148Z,37.05
2019-02-06T03:21:38.264Z,37.17
2019-02-06T03:22:11.300Z,37.58
2019-02-06T03:22:44.355Z,38.05
2019-02-06T03:23:17.488Z,37.35
2019-02-06T03:23:51.042Z,37.00
2019-02-06T03:24:24.084Z,38.38
2019-02-06T03:24:57.563Z,38.10
2019-02-06T03:25:30.568Z,38.10
2019-02-06T03:26:04.106Z,38.00
2019-02-06T03:26:37.184Z,38.23
2019-02-06T03:27:10.230Z,37.25
2019-02-06T03:27:43.269Z,37.93
2019-02-06T03:28:16.146Z,37.03
2019-02-06T03:28:49.166Z,37.38
2019-02-06T03:29:22.144Z,37.20
2019-02-06T03:29:56.256Z,38.38
2019-02-06T03:30:29.286Z,37.55
2019-02-06T03:31:02.535Z,37.83
2019-02-06T03:31:35.574Z,38.02
2019-02-06T03:32:08.593Z,37.20
2019-02-06T03:32:44.401Z,37.75
2019-02-06T03:33:17.335Z,38.15
2019-02-06T03:33:50.413Z,37.83
2019-02-06T03:34:23.536Z,37.88
2019-02-06T03:34:57.117Z,37.78
2019-02-06T03:35:30.239Z,38.58
2019-02-06T03:36:03.686Z,38.00
2019-02-06T03:36:40.320Z,38.42
2019-02-06T03:37:11.656Z,37.73
2019-02-06T03:37:44.671Z,37.55
2019-02-06T03:38:20.609Z,37.85
2019-02-06T03:38:53.630Z,37.40
2019-02-06T03:39:26.716Z,37.63
2019-02-06T03:39:59.724Z,37.58
2019-02-06T03:40:32.894Z,37.98
2019-02-06T03:41:06.133Z,37.13
2019-02-06T03:41:39.249Z,39.18
2019-02-06T03:42:12.646Z,37.08
2019-02-06T03:42:45.930Z,38.60
2019-02-06T03:43:19.340Z,38.90
2019-02-06T03:43:52.494Z,38.13
2019-02-06T03:44:25.516Z,37.90
2019-02-06T03:44:58.606Z,37.35
2019-02-06T03:45:31.963Z,37.25
2019-02-06T03:46:05.938Z,36.98
2019-02-06T03:46:39.024Z,38.15
2019-02-06T03:47:12.064Z,38.67
2019-02-06T03:47:45.075Z,37.80
2019-02-06T03:48:18.158Z,37.73
2019-02-06T03:48:51.152Z,37.88
2019-02-06T03:49:24.282Z,37.85
2019-02-06T03:49:57.276Z,37.45
2019-02-06T03:50:30.570Z,37.35
2019-02-06T03:51:03.802Z,37.90
2019-02-06T03:51:36.961Z,38.65
2019-02-06T03:52:09.988Z,37.55
2019-02-06T03:52:44.091Z,38.17
2019-02-06T03:53:17.110Z,38.48
2019-02-06T03:53:50.222Z,37.75
2019-02-06T03:54:23.212Z,38.92
2019-02-06T03:54:56.593Z,37.63
2019-02-06T03:55:29.606Z,38.40
2019-02-06T03:56:03.134Z,38.35
2019-02-06T03:56:36.141Z,37.88
2019-02-06T03:57:09.706Z,37.90
2019-02-06T03:57:43.928Z,37.95
2019-02-06T03:58:17.130Z,38.85
2019-02-06T03:58:50.133Z,38.17
2019-02-06T03:59:23.320Z,38.17
2019-02-06T03:59:56.404Z,38.90
2019-02-06T04:00:29.759Z,39.23
2019-02-06T04:01:02.884Z,38.30
2019-02-06T04:01:35.953Z,38.28
2019-02-06T04:02:08.953Z,37.90
2019-02-06T04:02:42.036Z,38.65
2019-02-06T04:03:15.000Z,38.08
2019-02-06T04:03:48.090Z,38.58
2019-02-06T04:04:21.091Z,38.45
2019-02-06T04:04:54.880Z,38.42
2019-02-06T04:05:27.786Z,38.48
2019-02-06T04:06:01.125Z,38.45
2019-02-06T04:06:34.037Z,39.27
2019-02-06T04:07:07.258Z,38.55
2019-02-06T04:07:40.275Z,38.85
2019-02-06T04:08:13.327Z,37.63
2019-02-06T04:08:47.422Z,37.30
2019-02-06T04:09:20.391Z,38.70
2019-02-06T04:09:53.802Z,39.25
2019-02-06T04:10:27.058Z,39.33
2019-02-06T04:11:00.597Z,39.53
2019-02-06T04:11:34.236Z,38.50
2019-02-06T04:12:07.672Z,40.05
2019-02-06T04:12:40.752Z,38.23
2019-02-06T04:13:14.799Z,39.78
2019-02-06T04:13:47.969Z,38.70
2019-02-06T04:14:20.967Z,38.65
2019-02-06T04:14:54.900Z,39.67
2019-02-06T04:15:28.010Z,40.25
2019-02-06T04:16:01.165Z,39.25
2019-02-06T04:16:34.271Z,39.13
2019-02-06T04:17:07.547Z,39.20
2019-02-06T04:17:40.636Z,39.20
2019-02-06T04:18:13.826Z,39.40
2019-02-06T04:18:46.926Z,40.55
2019-02-06T04:19:20.148Z,39.25
2019-02-06T04:19:53.258Z,39.70
2019-02-06T04:20:26.466Z,40.67
2019-02-06T04:20:59.562Z,38.98
2019-02-06T04:21:32.865Z,38.98
2019-02-06T04:22:05.957Z,39.92
2019-02-06T04:22:39.102Z,40.78
2019-02-06T04:23:15.399Z,40.23
2019-02-06T04:23:48.500Z,39.13
2019-02-06T04:24:21.419Z,39.88
2019-02-06T04:24:54.599Z,40.28
2019-02-06T04:25:27.716Z,40.85
2019-02-06T04:26:00.863Z,39.90
2019-02-06T04:26:33.925Z,40.00
2019-02-06T04:27:07.408Z,40.55
2019-02-06T04:27:40.611Z,40.33
2019-02-06T04:28:14.180Z,39.30
2019-02-06T04:28:47.926Z,39.42
2019-02-06T04:29:21.497Z,42.75
2019-02-06T04:29:54.567Z,40.28
2019-02-06T04:30:27.608Z,40.95
2019-02-06T04:31:00.681Z,42.05
2019-02-06T04:31:34.465Z,40.70
2019-02-06T04:32:07.661Z,40.03
2019-02-06T04:32:40.747Z,40.83
2019-02-06T04:33:13.924Z,40.05
2019-02-06T04:33:46.889Z,41.60
2019-02-06T04:34:19.940Z,40.88
2019-02-06T04:34:54.488Z,40.48
2019-02-06T04:35:27.620Z,40.05
2019-02-06T04:36:00.708Z,39.70
2019-02-06T04:36:33.785Z,40.73
2019-02-06T04:37:07.194Z,40.12
2019-02-06T04:37:40.287Z,40.52
2019-02-06T04:38:13.165Z,42.17
2019-02-06T04:38:46.227Z,40.52
2019-02-06T04:39:19.488Z,40.73
2019-02-06T04:39:52.653Z,40.17
2019-02-06T04:40:25.703Z,41.63
2019-02-06T04:40:58.753Z,41.73
2019-02-06T04:41:31.807Z,40.95
2019-02-06T04:42:05.174Z,40.43
2019-02-06T04:42:38.298Z,41.42
2019-02-06T04:43:11.847Z,40.78
2019-02-06T04:43:44.872Z,40.52
2019-02-06T04:44:18.432Z,41.00
2019-02-06T04:44:51.401Z,41.88
2019-02-06T04:45:25.993Z,40.75
2019-02-06T04:46:00.733Z,42.33
2019-02-06T04:46:33.675Z,41.75
2019-02-06T04:47:06.948Z,43.05
2019-02-06T04:47:39.915Z,40.88
2019-02-06T04:48:12.971Z,41.13
2019-02-06T04:48:46.018Z,45.58
2019-02-06T04:49:19.168Z,41.77
2019-02-06T04:49:52.365Z,45.38
2019-02-06T04:50:25.601Z,40.88
2019-02-06T04:50:58.672Z,43.50
2019-02-06T04:51:31.669Z,41.40
2019-02-06T04:52:05.857Z,42.67
2019-02-06T04:52:39.062Z,42.48
2019-02-06T04:53:12.051Z,45.45
2019-02-06T04:53:45.097Z,42.38
2019-02-06T04:54:18.044Z,42.40
2019-02-06T04:54:51.096Z,44.18
2019-02-06T04:55:24.199Z,46.25
2019-02-06T04:55:57.221Z,43.52
2019-02-06T04:56:30.255Z,41.25
2019-02-06T04:57:03.545Z,39.63
2019-02-06T04:57:36.612Z,43.15
2019-02-06T04:58:10.059Z,43.33
2019-02-06T04:58:43.180Z,44.03
2019-02-06T04:59:16.612Z,45.08
2019-02-06T04:59:49.548Z,44.75
2019-02-06T05:00:24.263Z,46.28
2019-02-06T05:00:57.241Z,47.25
2019-02-06T05:01:30.344Z,42.95
2019-02-06T05:02:04.579Z,48.20
2019-02-06T05:02:37.733Z,43.55
2019-02-06T05:03:10.827Z,44.03
2019-02-06T05:03:43.946Z,43.92
2019-02-06T05:04:17.009Z,45.63
2019-02-06T05:04:50.185Z,47.38
2019-02-06T05:05:23.529Z,42.17
2019-02-06T05:05:56.884Z,45.78
2019-02-06T05:06:29.823Z,45.10
2019-02-06T05:07:02.870Z,47.05
2019-02-06T05:07:35.947Z,44.18
2019-02-06T05:08:09.033Z,44.15
2019-02-06T05:08:42.128Z,45.88
2019-02-06T05:09:15.173Z,46.10
2019-02-06T05:09:48.120Z,48.10
2019-02-06T05:10:21.130Z,44.98
2019-02-06T05:10:54.257Z,46.70
2019-02-06T05:11:28.945Z,47.85
2019-02-06T05:12:02.035Z,45.52
2019-02-06T05:12:35.231Z,42.43
2019-02-06T05:13:08.571Z,43.05
2019-02-06T05:13:41.726Z,45.90
2019-02-06T05:14:14.888Z,45.08
2019-02-06T05:14:48.013Z,46.23
2019-02-06T05:15:21.161Z,44.48
2019-02-06T05:15:54.289Z,46.33
2019-02-06T05:16:27.435Z,46.18
2019-02-06T05:17:00.462Z,47.08
2019-02-06T05:17:33.503Z,42.75
2019-02-06T05:18:06.658Z,46.00
2019-02-06T05:18:39.569Z,46.10
2019-02-06T05:19:12.517Z,46.30
2019-02-06T05:19:45.550Z,47.98
2019-02-06T05:20:32.809Z,46.60
2019-02-06T05:21:05.835Z,46.30
2019-02-06T05:21:38.897Z,45.50
2019-02-06T05:22:11.933Z,46.53
2019-02-06T05:22:44.936Z,45.43
2019-02-06T05:23:17.851Z,46.33
2019-02-06T05:23:51.065Z,48.50
2019-02-06T05:24:24.201Z,43.48
2019-02-06T05:24:57.105Z,41.53
2019-02-06T05:25:30.283Z,46.90
2019-02-06T05:26:03.544Z,40.88
2019-02-06T05:26:36.659Z,43.25
2019-02-06T05:27:09.684Z,46.45
2019-02-06T05:27:42.883Z,43.25
2019-02-06T05:28:18.190Z,44.55
2019-02-06T05:28:51.482Z,44.42
2019-02-06T05:29:25.501Z,45.25
2019-02-06T05:29:58.514Z,42.60
2019-02-06T05:30:31.647Z,44.08
2019-02-06T05:31:04.699Z,49.88
2019-02-06T05:31:37.970Z,50.05
2019-02-06T05:32:11.144Z,47.83
2019-02-06T05:32:44.557Z,47.25
2019-02-06T05:33:17.612Z,49.10
2019-02-06T05:33:51.166Z,47.20
2019-02-06T05:34:24.213Z,46.68
2019-02-06T05:34:57.311Z,49.63
2019-02-06T05:35:30.501Z,43.95
2019-02-06T05:36:04.012Z,50.33
2019-02-06T05:36:37.086Z,46.77
2019-02-06T05:37:10.000Z,49.67
2019-02-06T05:37:43.134Z,49.00
2019-02-06T05:38:16.172Z,44.85
2019-02-06T05:38:49.679Z,46.02
2019-02-06T05:39:22.687Z,47.55
2019-02-06T05:39:55.814Z,49.73
2019-02-06T05:40:28.930Z,46.55
2019-02-06T05:41:01.985Z,49.10
2019-02-06T05:41:34.891Z,49.00
2019-02-06T05:42:08.023Z,50.17
2019-02-06T05:42:42.442Z,49.48
2019-02-06T05:43:15.398Z,49.77
2019-02-06T05:43:49.163Z,49.75
2019-02-06T05:44:22.134Z,48.68
2019-02-06T05:44:56.839Z,48.13
2019-02-06T05:45:30.085Z,51.68
2019-02-06T05:46:03.189Z,48.33
2019-02-06T05:46:36.739Z,50.52
2019-02-06T05:47:09.878Z,50.40
2019-02-06T05:47:43.308Z,52.10
2019-02-06T05:48:16.345Z,52.20
2019-02-06T05:48:49.617Z,51.05
2019-02-06T05:49:22.721Z,53.42
2019-02-06T05:49:55.849Z,49.45
2019-02-06T05:50:28.857Z,51.23
2019-02-06T05:51:01.810Z,52.23
2019-02-06T05:51:34.812Z,49.45
2019-02-06T05:52:07.956Z,54.08
2019-02-06T05:52:42.479Z,49.50
2019-02-06T05:53:15.420Z,54.00
2019-02-06T05:53:48.410Z,53.23
2019-02-06T05:54:21.494Z,49.35
2019-02-06T05:54:54.490Z,52.50
2019-02-06T05:55:27.428Z,47.83
2019-02-06T05:56:00.344Z,53.28
2019-02-06T05:56:33.387Z,54.00
2019-02-06T05:57:06.343Z,53.63
2019-02-06T05:57:39.522Z,48.85
2019-02-06T05:58:12.577Z,53.10
2019-02-06T05:59:03.765Z,53.87
2019-02-06T05:59:37.898Z,50.55
2019-02-06T06:00:43.922Z,51.75
2019-02-06T06:01:18.852Z,49.15
2019-02-06T06:01:53.014Z,55.58
2019-02-06T06:02:26.145Z,51.75
2019-02-06T06:02:59.331Z,54.90
2019-02-06T06:03:32.470Z,53.48
2019-02-06T06:04:05.501Z,53.42
2019-02-06T06:04:38.566Z,53.90
2019-02-06T06:05:11.687Z,56.68
2019-02-06T06:05:44.876Z,57.65
2019-02-06T06:06:17.885Z,50.98
2019-02-06T06:06:51.050Z,56.68
2019-02-06T06:07:24.374Z,55.98
2019-02-06T06:07:57.541Z,57.50
2019-02-06T06:08:31.070Z,52.10
2019-02-06T06:09:07.324Z,59.55
2019-02-06T06:09:40.564Z,53.10
2019-02-06T06:10:15.016Z,57.17
2019-02-06T06:10:48.419Z,54.93
2019-02-06T06:11:21.386Z,56.13
2019-02-06T06:11:54.384Z,63.00
2019-02-06T06:12:27.334Z,57.03
2019-02-06T06:13:00.328Z,53.95
2019-02-06T06:13:33.509Z,64.17
2019-02-06T06:14:06.588Z,59.95
2019-02-06T06:14:39.524Z,60.75
2019-02-06T06:15:14.544Z,60.03
2019-02-06T06:15:47.587Z,58.58
2019-02-06T06:16:20.606Z,59.58
2019-02-06T06:16:53.790Z,64.95
2019-02-06T06:17:26.701Z,62.50
2019-02-06T06:17:59.902Z,56.23
2019-02-06T06:18:32.914Z,59.58
2019-02-06T06:19:06.083Z,59.50
2019-02-06T06:19:39.188Z,63.63
2019-02-06T06:20:14.183Z,54.83
2019-02-06T06:20:47.218Z,55.15
2019-02-06T06:21:20.240Z,60.80
2019-02-06T06:21:53.259Z,58.92
2019-02-06T06:22:27.644Z,57.70
2019-02-06T06:23:00.694Z,61.58
2019-02-06T06:23:34.069Z,61.75
2019-02-06T06:24:09.149Z,63.75
2019-02-06T06:24:42.253Z,64.15
2019-02-06T06:25:15.843Z,61.73
2019-02-06T06:25:49.282Z,58.05
2019-02-06T06:26:22.292Z,63.35
2019-02-06T06:26:55.223Z,60.28
2019-02-06T06:27:28.038Z,57.78
2019-02-06T06:28:01.942Z,61.40
2019-02-06T06:28:35.064Z,60.45
2019-02-06T06:29:08.122Z,60.88
2019-02-06T06:29:41.174Z,59.73
2019-02-06T06:30:16.109Z,65.60
2019-02-06T06:30:49.274Z,63.52
2019-02-06T06:31:22.295Z,64.07
2019-02-06T06:31:55.377Z,62.83
2019-02-06T06:32:31.774Z,59.98
2019-02-06T06:33:03.608Z,61.02
2019-02-06T06:33:36.794Z,63.52
2019-02-06T06:34:09.819Z,60.23
2019-02-06T06:34:43.542Z,65.20
2019-02-06T06:35:16.816Z,61.68
2019-02-06T06:35:49.889Z,66.35
2019-02-06T06:36:22.956Z,60.43
2019-02-06T06:36:56.903Z,61.13
2019-02-06T06:37:31.842Z,64.90
2019-02-06T06:38:05.139Z,66.02
2019-02-06T06:38:38.267Z,62.67
2019-02-06T06:39:13.041Z,63.52
2019-02-06T06:39:46.177Z,58.95
2019-02-06T06:40:20.913Z,63.00
2019-02-06T06:40:54.121Z,63.42
2019-02-06T06:41:27.317Z,67.03
2019-02-06T06:42:00.781Z,66.65
2019-02-06T06:42:33.875Z,69.07
2019-02-06T06:43:07.220Z,62.03
2019-02-06T06:43:40.137Z,62.27
2019-02-06T06:44:13.188Z,59.00
2019-02-06T06:44:48.033Z,62.10
2019-02-06T06:45:22.108Z,63.35
2019-02-06T06:45:55.186Z,66.17
2019-02-06T06:46:28.146Z,70.37
2019-02-06T06:47:01.513Z,62.83
2019-02-06T06:47:34.732Z,63.42
2019-02-06T06:48:07.971Z,64.22
2019-02-06T06:48:41.058Z,64.85
2019-02-06T06:49:15.290Z,61.83
2019-02-06T06:49:49.104Z,65.10
2019-02-06T06:50:23.101Z,66.42
2019-02-06T06:50:56.240Z,63.83
2019-02-06T06:51:29.214Z,64.30
2019-02-06T06:52:04.002Z,62.95
2019-02-06T06:52:37.321Z,61.30
2019-02-06T06:53:10.344Z,68.05
2019-02-06T06:53:43.358Z,64.45
2019-02-06T06:54:16.535Z,67.90
2019-02-06T06:54:49.755Z,66.20
2019-02-06T06:55:22.956Z,66.50
2019-02-06T06:55:56.007Z,68.62
2019-02-06T06:56:29.041Z,71.72
2019-02-06T06:57:02.260Z,67.35
2019-02-06T06:57:35.429Z,66.67
2019-02-06T06:58:08.812Z,67.22
2019-02-06T06:58:41.922Z,70.95
2019-02-06T06:59:15.523Z,63.98
2019-02-06T06:59:48.589Z,67.25
2019-02-06T07:00:25.320Z,62.58
2019-02-06T07:00:58.466Z,73.07
2019-02-06T07:01:31.712Z,64.75
2019-02-06T07:02:04.762Z,68.30
2019-02-06T07:02:39.449Z,62.83
2019-02-06T07:03:12.423Z,64.35
2019-02-06T07:03:46.954Z,66.55
2019-02-06T07:04:20.080Z,60.80
2019-02-06T07:04:53.120Z,67.32
2019-02-06T07:05:27.854Z,58.45
2019-02-06T07:06:00.968Z,65.30
2019-02-06T07:06:34.146Z,64.85
2019-02-06T07:07:07.338Z,70.62
2019-02-06T07:07:40.590Z,63.13
2019-02-06T07:08:13.819Z,64.25
2019-02-06T07:08:46.887Z,64.72
2019-02-06T07:09:19.833Z,67.05
2019-02-06T07:09:52.785Z,62.88
2019-02-06T07:10:25.913Z,62.53
2019-02-06T07:10:59.078Z,69.85
2019-02-06T07:11:32.045Z,71.28
2019-02-06T07:12:05.206Z,66.05
2019-02-06T07:12:38.261Z,68.80